vendredi 28 février 2014

ALERTE SPOTTING 28/02/14

ER4 F-HBPE Pan Europeenne
   A5220/A58204  08h40/09h10

77W F-GZNF Air France
   dpt AF374Y 09h00

IL9 CU-T1250 Cubana
   CU440/CU441  09h00/11h30

32A EC-LVP Vueling (couleur Linking Europe)
   VY8018/VY8019   16h40/17h30

320 F-HDMF Air Corsica (sticker cyclistes)
   XK4505/XK4504   19h55/21h00

DF7
   SHE922/SHE922   21h25/22h25

Manque les prévisions/immats UX / BE / AZ / TP / BA / AH / DY
*** Heures en Local Time **
Prévisions soumises à modifications de dernières minute. Voir le log du mois pour la version 'définitive' de la journée: http://www.airkalo.com/ORLYAVIATION/Logdumois.html

le TAF de la journée



METAR: LFPO 280400Z 18006KT 9999 SCT007 BKN020 05/04 Q1004 BECMG
BKN012=
TAF LONG: LFPO 272300Z 2800/0106 22010KT 9999 SCT030 BECMG 2803/2805
16012KT -RA BKN012 TEMPO 2806/2811 16015G25KT 3000 RA BKN008 BECMG
2811/2813 BKN030 TEMPO 2813/2824 4000 SHRA BKN020 SCT025TCU PROB30
TEMPO 2813/2816 26020G30KT 3000 TSRA BKN012 BKN020CB BECMG 2822/2824
29006KT TEMPO 0100/0106 4000 -RA BKN012=